sensor_id;sensor_type;location;lat;lon;timestamp;temperature;humidity
8002;DHT22;4046;48.774;8.732;2024-02-15T00:01:03;22.90;69.50
8002;DHT22;4046;48.774;8.732;2024-02-15T00:03:31;22.90;69.50
8002;DHT22;4046;48.774;8.732;2024-02-15T00:12:49;22.90;69.50
8002;DHT22;4046;48.774;8.732;2024-02-15T00:15:43;22.90;69.50
8002;DHT22;4046;48.774;8.732;2024-02-15T00:19:18;22.90;69.50
8002;DHT22;4046;48.774;8.732;2024-02-15T00:21:37;22.90;69.50
8002;DHT22;4046;48.774;8.732;2024-02-15T00:24:10;22.90;69.50
8002;DHT22;4046;48.774;8.732;2024-02-15T00:26:36;22.90;69.60
8002;DHT22;4046;48.774;8.732;2024-02-15T00:29:06;22.90;69.50
8002;DHT22;4046;48.774;8.732;2024-02-15T00:31:32;22.90;69.60
8002;DHT22;4046;48.774;8.732;2024-02-15T00:37:17;22.90;69.50
8002;DHT22;4046;48.774;8.732;2024-02-15T00:43:34;22.90;69.60
8002;DHT22;4046;48.774;8.732;2024-02-15T00:49:19;22.90;69.60
8002;DHT22;4046;48.774;8.732;2024-02-15T00:51:49;22.90;69.60
8002;DHT22;4046;48.774;8.732;2024-02-15T00:54:15;22.90;69.60
8002;DHT22;4046;48.774;8.732;2024-02-15T00:56:57;22.90;69.60
8002;DHT22;4046;48.774;8.732;2024-02-15T00:59:23;22.90;69.60
8002;DHT22;4046;48.774;8.732;2024-02-15T01:04:56;22.90;69.60
8002;DHT22;4046;48.774;8.732;2024-02-15T01:07:25;22.90;69.60
8002;DHT22;4046;48.774;8.732;2024-02-15T01:13:12;22.90;69.60
8002;DHT22;4046;48.774;8.732;2024-02-15T01:16:52;22.90;69.60
8002;DHT22;4046;48.774;8.732;2024-02-15T01:19:31;22.90;69.60
8002;DHT22;4046;48.774;8.732;2024-02-15T01:22:00;22.80;69.50
8002;DHT22;4046;48.774;8.732;2024-02-15T01:25:05;22.90;69.60
8002;DHT22;4046;48.774;8.732;2024-02-15T01:27:32;22.90;69.70
8002;DHT22;4046;48.774;8.732;2024-02-15T01:30:24;22.90;69.70
8002;DHT22;4046;48.774;8.732;2024-02-15T01:33:23;22.90;69.70
8002;DHT22;4046;48.774;8.732;2024-02-15T01:35:49;22.90;69.70
8002;DHT22;4046;48.774;8.732;2024-02-15T01:41:31;22.90;69.60
8002;DHT22;4046;48.774;8.732;2024-02-15T01:43:58;22.90;69.70
8002;DHT22;4046;48.774;8.732;2024-02-15T01:47:04;22.90;69.70
8002;DHT22;4046;48.774;8.732;2024-02-15T01:49:30;22.90;69.70
8002;DHT22;4046;48.774;8.732;2024-02-15T01:55:32;22.80;69.60
8002;DHT22;4046;48.774;8.732;2024-02-15T02:01:18;22.90;69.70
8002;DHT22;4046;48.774;8.732;2024-02-15T02:03:45;22.80;69.60
8002;DHT22;4046;48.774;8.732;2024-02-15T02:09:11;22.90;69.80
8002;DHT22;4046;48.774;8.732;2024-02-15T02:11:45;23.20;70.10
8002;DHT22;4046;48.774;8.732;2024-02-15T02:20:58;22.80;69.70
8002;DHT22;4046;48.774;8.732;2024-02-15T02:31:34;22.80;69.70
8002;DHT22;4046;48.774;8.732;2024-02-15T02:37:41;22.80;69.70
8002;DHT22;4046;48.774;8.732;2024-02-15T02:44:12;22.80;69.80
8002;DHT22;4046;48.774;8.732;2024-02-15T02:46:59;22.80;69.70
8002;DHT22;4046;48.774;8.732;2024-02-15T02:53:55;22.80;69.80
8002;DHT22;4046;48.774;8.732;2024-02-15T02:56:37;22.80;69.80
8002;DHT22;4046;48.774;8.732;2024-02-15T03:01:55;22.80;69.80
8002;DHT22;4046;48.774;8.732;2024-02-15T03:07:32;22.80;69.80
8002;DHT22;4046;48.774;8.732;2024-02-15T03:09:58;22.80;69.80
8002;DHT22;4046;48.774;8.732;2024-02-15T03:12:25;22.80;69.80
8002;DHT22;4046;48.774;8.732;2024-02-15T03:15:32;22.80;69.70
8002;DHT22;4046;48.774;8.732;2024-02-15T03:18:01;22.80;69.70
8002;DHT22;4046;48.774;8.732;2024-02-15T03:24:06;22.80;69.80
8002;DHT22;4046;48.774;8.732;2024-02-15T03:37:46;22.80;69.80
8002;DHT22;4046;48.774;8.732;2024-02-15T03:40:13;22.80;69.80
8002;DHT22;4046;48.774;8.732;2024-02-15T03:43:01;22.80;69.80
8002;DHT22;4046;48.774;8.732;2024-02-15T03:46:28;22.70;69.70
8002;DHT22;4046;48.774;8.732;2024-02-15T03:49:55;22.80;69.80
8002;DHT22;4046;48.774;8.732;2024-02-15T03:53:22;22.80;69.80
8002;DHT22;4046;48.774;8.732;2024-02-15T03:56:21;22.80;69.80
8002;DHT22;4046;48.774;8.732;2024-02-15T03:59:48;22.80;69.80
8002;DHT22;4046;48.774;8.732;2024-02-15T04:02:19;22.80;69.80
8002;DHT22;4046;48.774;8.732;2024-02-15T04:11:50;22.80;69.80
8002;DHT22;4046;48.774;8.732;2024-02-15T04:14:19;22.80;69.80
8002;DHT22;4046;48.774;8.732;2024-02-15T04:20:38;22.80;69.80
8002;DHT22;4046;48.774;8.732;2024-02-15T04:23:33;22.80;69.80
8002;DHT22;4046;48.774;8.732;2024-02-15T04:26:21;22.80;69.80
8002;DHT22;4046;48.774;8.732;2024-02-15T04:32:36;22.80;69.80
8002;DHT22;4046;48.774;8.732;2024-02-15T04:35:02;22.80;69.90
8002;DHT22;4046;48.774;8.732;2024-02-15T04:37:29;22.80;69.80
8002;DHT22;4046;48.774;8.732;2024-02-15T04:39:58;22.80;69.80
8002;DHT22;4046;48.774;8.732;2024-02-15T04:42:32;22.80;69.80
8002;DHT22;4046;48.774;8.732;2024-02-15T04:48:41;22.80;69.80
8002;DHT22;4046;48.774;8.732;2024-02-15T04:51:22;22.80;69.80
8002;DHT22;4046;48.774;8.732;2024-02-15T04:57:53;22.80;69.80
8002;DHT22;4046;48.774;8.732;2024-02-15T05:10:33;22.70;69.80
8002;DHT22;4046;48.774;8.732;2024-02-15T05:13:42;22.70;69.80
8002;DHT22;4046;48.774;8.732;2024-02-15T05:16:08;22.70;69.80
8002;DHT22;4046;48.774;8.732;2024-02-15T05:22:42;22.80;69.80
8002;DHT22;4046;48.774;8.732;2024-02-15T05:25:31;22.80;69.80
8002;DHT22;4046;48.774;8.732;2024-02-15T05:28:10;22.80;69.80
8002;DHT22;4046;48.774;8.732;2024-02-15T05:34:13;22.80;69.80
8002;DHT22;4046;48.774;8.732;2024-02-15T05:37:03;22.80;69.80
8002;DHT22;4046;48.774;8.732;2024-02-15T05:40:42;22.80;69.90
8002;DHT22;4046;48.774;8.732;2024-02-15T05:44:17;22.80;69.90
8002;DHT22;4046;48.774;8.732;2024-02-15T05:50:13;22.70;69.80
8002;DHT22;4046;48.774;8.732;2024-02-15T05:56:08;22.70;69.80
8002;DHT22;4046;48.774;8.732;2024-02-15T05:58:35;22.70;69.80
8002;DHT22;4046;48.774;8.732;2024-02-15T06:01:18;22.70;69.80
8002;DHT22;4046;48.774;8.732;2024-02-15T06:03:56;22.80;69.90
8002;DHT22;4046;48.774;8.732;2024-02-15T06:06:40;22.80;69.90
8002;DHT22;4046;48.774;8.732;2024-02-15T06:12:29;22.80;69.80
8002;DHT22;4046;48.774;8.732;2024-02-15T06:18:17;22.80;69.80
8002;DHT22;4046;48.774;8.732;2024-02-15T06:21:12;22.80;69.80
8002;DHT22;4046;48.774;8.732;2024-02-15T06:24:14;22.80;69.80
8002;DHT22;4046;48.774;8.732;2024-02-15T06:27:41;22.80;69.90
8002;DHT22;4046;48.774;8.732;2024-02-15T06:30:29;22.80;69.80
8002;DHT22;4046;48.774;8.732;2024-02-15T06:33:53;22.80;69.80
8002;DHT22;4046;48.774;8.732;2024-02-15T06:40:17;22.70;69.80
8002;DHT22;4046;48.774;8.732;2024-02-15T06:46:25;22.70;69.80
8002;DHT22;4046;48.774;8.732;2024-02-15T06:49:04;22.70;69.80
8002;DHT22;4046;48.774;8.732;2024-02-15T06:52:00;22.70;69.80
8002;DHT22;4046;48.774;8.732;2024-02-15T06:55:02;22.70;69.80
8002;DHT22;4046;48.774;8.732;2024-02-15T06:58:09;22.70;69.70
8002;DHT22;4046;48.774;8.732;2024-02-15T07:01:35;22.70;69.70
8002;DHT22;4046;48.774;8.732;2024-02-15T07:04:51;22.80;69.80
8002;DHT22;4046;48.774;8.732;2024-02-15T07:07:24;22.80;69.80
8002;DHT22;4046;48.774;8.732;2024-02-15T07:10:02;22.70;69.70
8002;DHT22;4046;48.774;8.732;2024-02-15T07:14:02;22.80;69.80
8002;DHT22;4046;48.774;8.732;2024-02-15T07:16:58;22.80;69.80
8002;DHT22;4046;48.774;8.732;2024-02-15T07:19:25;22.70;69.70
8002;DHT22;4046;48.774;8.732;2024-02-15T07:26:32;22.80;69.90
8002;DHT22;4046;48.774;8.732;2024-02-15T07:29:20;22.80;69.80
8002;DHT22;4046;48.774;8.732;2024-02-15T07:32:09;22.80;69.80
8002;DHT22;4046;48.774;8.732;2024-02-15T07:34:35;22.80;69.80
8002;DHT22;4046;48.774;8.732;2024-02-15T07:40:56;22.80;69.70
8002;DHT22;4046;48.774;8.732;2024-02-15T07:44:04;22.80;69.80
8002;DHT22;4046;48.774;8.732;2024-02-15T07:46:34;22.80;69.70
8002;DHT22;4046;48.774;8.732;2024-02-15T07:49:01;22.80;69.70
8002;DHT22;4046;48.774;8.732;2024-02-15T07:51:54;22.80;69.70
8002;DHT22;4046;48.774;8.732;2024-02-15T07:54:56;22.80;69.70
8002;DHT22;4046;48.774;8.732;2024-02-15T07:58:29;22.80;69.70
8002;DHT22;4046;48.774;8.732;2024-02-15T08:01:05;22.80;69.70
8002;DHT22;4046;48.774;8.732;2024-02-15T08:03:49;22.80;69.70
8002;DHT22;4046;48.774;8.732;2024-02-15T08:06:45;22.80;69.70
8002;DHT22;4046;48.774;8.732;2024-02-15T08:09:35;22.80;69.60
8002;DHT22;4046;48.774;8.732;2024-02-15T08:12:46;22.80;69.60
8002;DHT22;4046;48.774;8.732;2024-02-15T08:18:45;22.90;69.70
8002;DHT22;4046;48.774;8.732;2024-02-15T08:21:14;22.80;69.50
8002;DHT22;4046;48.774;8.732;2024-02-15T08:27:03;22.90;69.60
8002;DHT22;4046;48.774;8.732;2024-02-15T08:29:30;22.90;69.60
8002;DHT22;4046;48.774;8.732;2024-02-15T08:32:18;22.90;69.60
8002;DHT22;4046;48.774;8.732;2024-02-15T08:34:44;22.90;69.60
8002;DHT22;4046;48.774;8.732;2024-02-15T08:37:10;22.90;69.60
8002;DHT22;4046;48.774;8.732;2024-02-15T08:40:02;22.90;69.50
8002;DHT22;4046;48.774;8.732;2024-02-15T08:43:31;22.90;69.50
8002;DHT22;4046;48.774;8.732;2024-02-15T08:46:26;23.20;69.60
8002;DHT22;4046;48.774;8.732;2024-02-15T08:49:02;23.00;69.30
8002;DHT22;4046;48.774;8.732;2024-02-15T09:02:46;23.20;69.10
8002;DHT22;4046;48.774;8.732;2024-02-15T09:09:22;23.20;69.00
8002;DHT22;4046;48.774;8.732;2024-02-15T09:12:09;23.30;68.90
8002;DHT22;4046;48.774;8.732;2024-02-15T09:14:47;23.30;68.90
8002;DHT22;4046;48.774;8.732;2024-02-15T09:17:29;23.30;68.90
8002;DHT22;4046;48.774;8.732;2024-02-15T09:23:07;23.40;68.60
8002;DHT22;4046;48.774;8.732;2024-02-15T09:25:50;23.50;68.50
8002;DHT22;4046;48.774;8.732;2024-02-15T09:29:00;23.70;68.20
8002;DHT22;4046;48.774;8.732;2024-02-15T09:31:27;24.00;67.60
8002;DHT22;4046;48.774;8.732;2024-02-15T09:40:42;24.80;66.60
8002;DHT22;4046;48.774;8.732;2024-02-15T09:43:37;24.90;66.20
8002;DHT22;4046;48.774;8.732;2024-02-15T09:47:03;25.10;66.00
8002;DHT22;4046;48.774;8.732;2024-02-15T09:50:19;25.30;65.60
8002;DHT22;4046;48.774;8.732;2024-02-15T09:57:09;25.70;64.90
8002;DHT22;4046;48.774;8.732;2024-02-15T09:59:40;25.90;64.50
8002;DHT22;4046;48.774;8.732;2024-02-15T10:02:52;26.00;64.20
8002;DHT22;4046;48.774;8.732;2024-02-15T10:05:19;26.20;64.00
8002;DHT22;4046;48.774;8.732;2024-02-15T10:11:14;26.20;63.70
8002;DHT22;4046;48.774;8.732;2024-02-15T10:13:41;26.20;63.60
8002;DHT22;4046;48.774;8.732;2024-02-15T10:16:36;26.20;63.60
8002;DHT22;4046;48.774;8.732;2024-02-15T10:19:09;26.20;63.50
8002;DHT22;4046;48.774;8.732;2024-02-15T10:21:41;26.30;63.40
8002;DHT22;4046;48.774;8.732;2024-02-15T10:24:23;26.30;63.40
8002;DHT22;4046;48.774;8.732;2024-02-15T10:27:23;26.20;63.40
8002;DHT22;4046;48.774;8.732;2024-02-15T10:33:50;26.00;63.50
8002;DHT22;4046;48.774;8.732;2024-02-15T10:37:41;26.00;63.60
8002;DHT22;4046;48.774;8.732;2024-02-15T10:47:26;25.90;63.70
8002;DHT22;4046;48.774;8.732;2024-02-15T10:50:29;25.80;63.60
8002;DHT22;4046;48.774;8.732;2024-02-15T10:53:30;25.90;63.70
8002;DHT22;4046;48.774;8.732;2024-02-15T10:56:05;25.90;63.60
8002;DHT22;4046;48.774;8.732;2024-02-15T10:59:19;25.90;63.90
8002;DHT22;4046;48.774;8.732;2024-02-15T11:01:59;25.50;64.20
8002;DHT22;4046;48.774;8.732;2024-02-15T11:05:29;25.30;64.50
8002;DHT22;4046;48.774;8.732;2024-02-15T11:07:49;25.00;65.00
8002;DHT22;4046;48.774;8.732;2024-02-15T11:10:17;24.70;65.30
8002;DHT22;4046;48.774;8.732;2024-02-15T11:12:55;24.50;65.60
8002;DHT22;4046;48.774;8.732;2024-02-15T11:15:54;24.40;65.80
8002;DHT22;4046;48.774;8.732;2024-02-15T11:25:35;24.00;66.40
8002;DHT22;4046;48.774;8.732;2024-02-15T11:29:47;23.80;66.80
8002;DHT22;4046;48.774;8.732;2024-02-15T11:33:33;23.70;67.00
8002;DHT22;4046;48.774;8.732;2024-02-15T11:39:40;23.50;67.50
8002;DHT22;4046;48.774;8.732;2024-02-15T11:42:32;23.50;67.60
8002;DHT22;4046;48.774;8.732;2024-02-15T11:46:19;23.40;67.70
8002;DHT22;4046;48.774;8.732;2024-02-15T11:53:29;23.30;68.00
8002;DHT22;4046;48.774;8.732;2024-02-15T11:56:25;23.20;68.10
8002;DHT22;4046;48.774;8.732;2024-02-15T11:59:04;23.20;68.10
8002;DHT22;4046;48.774;8.732;2024-02-15T12:02:27;23.20;68.10
8002;DHT22;4046;48.774;8.732;2024-02-15T12:05:42;23.20;68.20
8002;DHT22;4046;48.774;8.732;2024-02-15T12:08:49;23.20;68.30
8002;DHT22;4046;48.774;8.732;2024-02-15T12:11:44;23.20;68.40
8002;DHT22;4046;48.774;8.732;2024-02-15T12:21:34;23.20;68.50
8002;DHT22;4046;48.774;8.732;2024-02-15T12:24:23;23.10;68.50
8002;DHT22;4046;48.774;8.732;2024-02-15T12:27:07;23.10;68.60
8002;DHT22;4046;48.774;8.732;2024-02-15T12:29:36;23.10;68.60
8002;DHT22;4046;48.774;8.732;2024-02-15T12:32:02;23.00;68.60
8002;DHT22;4046;48.774;8.732;2024-02-15T12:34:53;23.00;68.60
8002;DHT22;4046;48.774;8.732;2024-02-15T12:37:36;23.00;68.70
8002;DHT22;4046;48.774;8.732;2024-02-15T12:41:03;23.00;68.80
8002;DHT22;4046;48.774;8.732;2024-02-15T12:43:39;23.00;68.80
8002;DHT22;4046;48.774;8.732;2024-02-15T12:55:43;23.00;68.90
8002;DHT22;4046;48.774;8.732;2024-02-15T12:58:13;22.90;69.00
8002;DHT22;4046;48.774;8.732;2024-02-15T13:00:44;22.90;69.00
8002;DHT22;4046;48.774;8.732;2024-02-15T13:06:15;22.90;69.00
8002;DHT22;4046;48.774;8.732;2024-02-15T13:09:00;22.90;69.10
8002;DHT22;4046;48.774;8.732;2024-02-15T13:11:36;22.90;69.10
8002;DHT22;4046;48.774;8.732;2024-02-15T13:14:03;22.90;69.10
8002;DHT22;4046;48.774;8.732;2024-02-15T13:19:46;22.90;69.10
8002;DHT22;4046;48.774;8.732;2024-02-15T13:22:21;22.90;69.70
8002;DHT22;4046;48.774;8.732;2024-02-15T13:25:29;22.90;69.10
8002;DHT22;4046;48.774;8.732;2024-02-15T13:27:56;22.90;69.10
8002;DHT22;4046;48.774;8.732;2024-02-15T13:31:00;22.90;69.20
8002;DHT22;4046;48.774;8.732;2024-02-15T13:33:35;22.90;69.10
8002;DHT22;4046;48.774;8.732;2024-02-15T13:43:22;22.90;69.30
8002;DHT22;4046;48.774;8.732;2024-02-15T13:45:48;22.90;69.30
8002;DHT22;4046;48.774;8.732;2024-02-15T13:48:15;22.90;69.30
8002;DHT22;4046;48.774;8.732;2024-02-15T13:50:53;22.90;69.30
8002;DHT22;4046;48.774;8.732;2024-02-15T13:53:35;22.90;69.30
8002;DHT22;4046;48.774;8.732;2024-02-15T13:56:31;22.90;69.30
8002;DHT22;4046;48.774;8.732;2024-02-15T14:03:26;22.80;69.30
8002;DHT22;4046;48.774;8.732;2024-02-15T14:05:52;23.20;69.80
8002;DHT22;4046;48.774;8.732;2024-02-15T14:08:18;23.00;69.60
8002;DHT22;4046;48.774;8.732;2024-02-15T14:10:46;22.90;69.50
8002;DHT22;4046;48.774;8.732;2024-02-15T14:13:31;22.90;70.20
8002;DHT22;4046;48.774;8.732;2024-02-15T14:15:57;22.80;69.40
8002;DHT22;4046;48.774;8.732;2024-02-15T14:22:05;22.80;69.40
8002;DHT22;4046;48.774;8.732;2024-02-15T14:24:37;22.90;69.50
8002;DHT22;4046;48.774;8.732;2024-02-15T14:27:57;22.80;69.50
8002;DHT22;4046;48.774;8.732;2024-02-15T14:30:27;22.90;69.60
8002;DHT22;4046;48.774;8.732;2024-02-15T14:33:28;22.80;69.50
8002;DHT22;4046;48.774;8.732;2024-02-15T14:36:01;22.80;69.50
8002;DHT22;4046;48.774;8.732;2024-02-15T14:42:30;22.80;69.50
8002;DHT22;4046;48.774;8.732;2024-02-15T14:49:08;22.80;69.60
8002;DHT22;4046;48.774;8.732;2024-02-15T14:55:43;22.80;70.50
8002;DHT22;4046;48.774;8.732;2024-02-15T14:58:33;22.80;69.70
8002;DHT22;4046;48.774;8.732;2024-02-15T15:02:02;22.80;69.80
8002;DHT22;4046;48.774;8.732;2024-02-15T15:04:35;22.80;69.80
8002;DHT22;4046;48.774;8.732;2024-02-15T15:07:39;22.80;69.80
8002;DHT22;4046;48.774;8.732;2024-02-15T15:10:24;22.80;69.80
8002;DHT22;4046;48.774;8.732;2024-02-15T15:13:40;22.70;69.70
8002;DHT22;4046;48.774;8.732;2024-02-15T15:16:07;22.70;69.80
8002;DHT22;4046;48.774;8.732;2024-02-15T15:18:48;22.80;69.90
8002;DHT22;4046;48.774;8.732;2024-02-15T15:21:42;22.80;69.90
8002;DHT22;4046;48.774;8.732;2024-02-15T15:24:09;22.70;69.80
8002;DHT22;4046;48.774;8.732;2024-02-15T15:27:05;22.70;69.80
8002;DHT22;4046;48.774;8.732;2024-02-15T15:30:08;22.70;69.90
8002;DHT22;4046;48.774;8.732;2024-02-15T15:32:36;22.70;69.90
8002;DHT22;4046;48.774;8.732;2024-02-15T15:35:34;22.70;70.00
8002;DHT22;4046;48.774;8.732;2024-02-15T15:38:36;22.70;69.90
8002;DHT22;4046;48.774;8.732;2024-02-15T15:41:37;22.70;70.00
8002;DHT22;4046;48.774;8.732;2024-02-15T15:44:27;22.70;70.00
8002;DHT22;4046;48.774;8.732;2024-02-15T15:47:06;22.70;70.00
8002;DHT22;4046;48.774;8.732;2024-02-15T15:53:17;22.70;70.10
8002;DHT22;4046;48.774;8.732;2024-02-15T15:55:47;22.70;70.10
8002;DHT22;4046;48.774;8.732;2024-02-15T15:58:16;22.70;70.00
8002;DHT22;4046;48.774;8.732;2024-02-15T16:00:54;22.70;70.10
8002;DHT22;4046;48.774;8.732;2024-02-15T16:03:27;22.70;70.10
8002;DHT22;4046;48.774;8.732;2024-02-15T16:06:21;22.70;70.10
8002;DHT22;4046;48.774;8.732;2024-02-15T16:09:11;22.70;70.10
8002;DHT22;4046;48.774;8.732;2024-02-15T16:12:32;22.70;70.20
8002;DHT22;4046;48.774;8.732;2024-02-15T16:15:18;22.70;70.20
8002;DHT22;4046;48.774;8.732;2024-02-15T16:18:05;22.70;70.10
8002;DHT22;4046;48.774;8.732;2024-02-15T16:20:32;22.80;70.20
8002;DHT22;4046;48.774;8.732;2024-02-15T16:23:37;22.80;70.10
8002;DHT22;4046;48.774;8.732;2024-02-15T16:26:42;22.90;71.00
8002;DHT22;4046;48.774;8.732;2024-02-15T16:32:32;23.00;70.10
8002;DHT22;4046;48.774;8.732;2024-02-15T16:38:22;23.00;70.10
8002;DHT22;4046;48.774;8.732;2024-02-15T16:45:03;23.10;70.10
8002;DHT22;4046;48.774;8.732;2024-02-15T16:47:57;23.10;70.10
8002;DHT22;4046;48.774;8.732;2024-02-15T16:51:19;23.20;70.20
8002;DHT22;4046;48.774;8.732;2024-02-15T16:54:24;23.10;70.10
8002;DHT22;4046;48.774;8.732;2024-02-15T16:59:57;23.10;70.10
8002;DHT22;4046;48.774;8.732;2024-02-15T17:02:24;23.10;70.10
8002;DHT22;4046;48.774;8.732;2024-02-15T17:08:41;23.10;70.10
8002;DHT22;4046;48.774;8.732;2024-02-15T17:14:26;23.10;70.20
8002;DHT22;4046;48.774;8.732;2024-02-15T17:20:01;23.10;70.30
8002;DHT22;4046;48.774;8.732;2024-02-15T17:32:21;23.00;70.30
8002;DHT22;4046;48.774;8.732;2024-02-15T17:34:37;23.00;70.30
8002;DHT22;4046;48.774;8.732;2024-02-15T17:37:03;23.10;70.50
8002;DHT22;4046;48.774;8.732;2024-02-15T17:42:34;23.00;70.40
8002;DHT22;4046;48.774;8.732;2024-02-15T17:45:13;23.00;70.40
8002;DHT22;4046;48.774;8.732;2024-02-15T17:48:07;23.00;70.40
8002;DHT22;4046;48.774;8.732;2024-02-15T17:50:36;23.00;70.40
8002;DHT22;4046;48.774;8.732;2024-02-15T17:53:09;23.00;70.40
8002;DHT22;4046;48.774;8.732;2024-02-15T17:59:31;23.00;70.50
8002;DHT22;4046;48.774;8.732;2024-02-15T18:02:47;23.00;70.50
8002;DHT22;4046;48.774;8.732;2024-02-15T18:05:24;23.00;70.50
8002;DHT22;4046;48.774;8.732;2024-02-15T18:08:10;23.00;70.60
8002;DHT22;4046;48.774;8.732;2024-02-15T18:10:40;23.00;70.50
8002;DHT22;4046;48.774;8.732;2024-02-15T18:13:33;23.00;70.50
8002;DHT22;4046;48.774;8.732;2024-02-15T18:16:32;23.00;70.50
8002;DHT22;4046;48.774;8.732;2024-02-15T18:19:02;22.80;70.30
8002;DHT22;4046;48.774;8.732;2024-02-15T18:22:07;23.00;70.60
8002;DHT22;4046;48.774;8.732;2024-02-15T18:24:43;23.00;70.60
8002;DHT22;4046;48.774;8.732;2024-02-15T18:27:09;23.00;70.50
8002;DHT22;4046;48.774;8.732;2024-02-15T18:33:10;23.00;70.50
8002;DHT22;4046;48.774;8.732;2024-02-15T18:36:19;23.00;70.50
8002;DHT22;4046;48.774;8.732;2024-02-15T18:38:46;23.00;70.50
8002;DHT22;4046;48.774;8.732;2024-02-15T18:44:50;23.00;70.60
8002;DHT22;4046;48.774;8.732;2024-02-15T18:47:46;23.00;70.60
8002;DHT22;4046;48.774;8.732;2024-02-15T18:50:19;23.00;70.60
8002;DHT22;4046;48.774;8.732;2024-02-15T18:52:47;23.00;70.70
8002;DHT22;4046;48.774;8.732;2024-02-15T18:55:46;23.00;70.70
8002;DHT22;4046;48.774;8.732;2024-02-15T18:58:49;23.00;70.70
8002;DHT22;4046;48.774;8.732;2024-02-15T19:04:49;23.00;70.60
8002;DHT22;4046;48.774;8.732;2024-02-15T19:07:18;23.30;70.90
8002;DHT22;4046;48.774;8.732;2024-02-15T19:10:07;23.00;70.60
8002;DHT22;4046;48.774;8.732;2024-02-15T19:12:51;23.00;70.60
8002;DHT22;4046;48.774;8.732;2024-02-15T19:15:19;23.00;70.70
8002;DHT22;4046;48.774;8.732;2024-02-15T19:17:49;23.00;70.80
8002;DHT22;4046;48.774;8.732;2024-02-15T19:20:38;23.00;70.70
8002;DHT22;4046;48.774;8.732;2024-02-15T19:23:05;23.00;70.80
8002;DHT22;4046;48.774;8.732;2024-02-15T19:25:53;23.00;70.70
8002;DHT22;4046;48.774;8.732;2024-02-15T19:29:13;23.00;70.70
8002;DHT22;4046;48.774;8.732;2024-02-15T19:32:28;23.00;70.70
8002;DHT22;4046;48.774;8.732;2024-02-15T19:38:47;23.00;70.80
8002;DHT22;4046;48.774;8.732;2024-02-15T19:41:15;23.00;70.80
8002;DHT22;4046;48.774;8.732;2024-02-15T19:43:42;23.00;70.80
8002;DHT22;4046;48.774;8.732;2024-02-15T19:46:08;23.00;70.80
8002;DHT22;4046;48.774;8.732;2024-02-15T19:52:49;23.00;70.80
8002;DHT22;4046;48.774;8.732;2024-02-15T19:55:15;23.00;70.80
8002;DHT22;4046;48.774;8.732;2024-02-15T19:58:15;23.00;70.80
8002;DHT22;4046;48.774;8.732;2024-02-15T20:01:02;23.00;70.80
8002;DHT22;4046;48.774;8.732;2024-02-15T20:03:36;23.00;70.80
8002;DHT22;4046;48.774;8.732;2024-02-15T20:06:14;23.00;71.60
8002;DHT22;4046;48.774;8.732;2024-02-15T20:08:40;23.00;70.80
8002;DHT22;4046;48.774;8.732;2024-02-15T20:11:09;23.00;70.80
8002;DHT22;4046;48.774;8.732;2024-02-15T20:13:37;23.00;70.80
8002;DHT22;4046;48.774;8.732;2024-02-15T20:19:24;23.00;70.80
8002;DHT22;4046;48.774;8.732;2024-02-15T20:25:07;23.00;70.80
8002;DHT22;4046;48.774;8.732;2024-02-15T20:27:35;23.00;70.80
8002;DHT22;4046;48.774;8.732;2024-02-15T20:30:03;23.00;70.90
8002;DHT22;4046;48.774;8.732;2024-02-15T20:32:53;23.00;70.90
8002;DHT22;4046;48.774;8.732;2024-02-15T20:35:50;23.00;70.90
8002;DHT22;4046;48.774;8.732;2024-02-15T20:38:42;23.00;70.90
8002;DHT22;4046;48.774;8.732;2024-02-15T20:41:08;23.00;70.90
8002;DHT22;4046;48.774;8.732;2024-02-15T20:43:38;23.00;70.90
8002;DHT22;4046;48.774;8.732;2024-02-15T20:46:05;23.00;70.90
8002;DHT22;4046;48.774;8.732;2024-02-15T20:48:53;23.00;70.90
8002;DHT22;4046;48.774;8.732;2024-02-15T20:55:07;23.00;70.90
8002;DHT22;4046;48.774;8.732;2024-02-15T20:57:34;23.00;70.90
8002;DHT22;4046;48.774;8.732;2024-02-15T21:00:30;23.00;71.00
8002;DHT22;4046;48.774;8.732;2024-02-15T21:03:22;23.00;70.90
8002;DHT22;4046;48.774;8.732;2024-02-15T21:09:00;23.00;71.70
8002;DHT22;4046;48.774;8.732;2024-02-15T21:11:48;23.10;71.10
8002;DHT22;4046;48.774;8.732;2024-02-15T21:15:07;23.00;71.00
8002;DHT22;4046;48.774;8.732;2024-02-15T21:21:43;23.00;70.90
8002;DHT22;4046;48.774;8.732;2024-02-15T21:27:33;23.00;71.00
8002;DHT22;4046;48.774;8.732;2024-02-15T21:30:00;23.00;71.10
8002;DHT22;4046;48.774;8.732;2024-02-15T21:33:09;23.00;71.00
8002;DHT22;4046;48.774;8.732;2024-02-15T21:35:35;23.00;71.00
8002;DHT22;4046;48.774;8.732;2024-02-15T21:38:53;23.00;71.10
8002;DHT22;4046;48.774;8.732;2024-02-15T21:41:19;23.00;71.10
8002;DHT22;4046;48.774;8.732;2024-02-15T21:43:45;23.00;71.10
8002;DHT22;4046;48.774;8.732;2024-02-15T21:46:12;23.00;71.10
8002;DHT22;4046;48.774;8.732;2024-02-15T21:49:11;23.00;71.10
8002;DHT22;4046;48.774;8.732;2024-02-15T21:52:01;23.00;71.10
8002;DHT22;4046;48.774;8.732;2024-02-15T21:55:00;23.00;71.10
8002;DHT22;4046;48.774;8.732;2024-02-15T21:57:45;23.00;71.10
8002;DHT22;4046;48.774;8.732;2024-02-15T22:00:14;23.00;71.10
8002;DHT22;4046;48.774;8.732;2024-02-15T22:02:40;23.00;71.10
8002;DHT22;4046;48.774;8.732;2024-02-15T22:05:26;23.00;71.10
8002;DHT22;4046;48.774;8.732;2024-02-15T22:08:24;23.00;71.10
8002;DHT22;4046;48.774;8.732;2024-02-15T22:11:13;23.00;71.10
8002;DHT22;4046;48.774;8.732;2024-02-15T22:13:40;23.00;71.10
8002;DHT22;4046;48.774;8.732;2024-02-15T22:16:22;23.00;71.10
8002;DHT22;4046;48.774;8.732;2024-02-15T22:19:13;23.00;71.20
8002;DHT22;4046;48.774;8.732;2024-02-15T22:22:17;23.00;71.20
8002;DHT22;4046;48.774;8.732;2024-02-15T22:25:06;23.00;71.10
8002;DHT22;4046;48.774;8.732;2024-02-15T22:27:52;23.00;71.10
8002;DHT22;4046;48.774;8.732;2024-02-15T22:31:35;23.00;71.20
8002;DHT22;4046;48.774;8.732;2024-02-15T22:34:02;23.00;71.20
8002;DHT22;4046;48.774;8.732;2024-02-15T22:37:07;23.00;71.20
8002;DHT22;4046;48.774;8.732;2024-02-15T22:40:08;23.00;71.20
8002;DHT22;4046;48.774;8.732;2024-02-15T22:42:37;23.00;71.20
8002;DHT22;4046;48.774;8.732;2024-02-15T22:45:04;23.00;71.30
8002;DHT22;4046;48.774;8.732;2024-02-15T22:47:33;23.00;71.20
8002;DHT22;4046;48.774;8.732;2024-02-15T22:53:38;23.00;71.30
8002;DHT22;4046;48.774;8.732;2024-02-15T22:56:41;23.00;71.30
8002;DHT22;4046;48.774;8.732;2024-02-15T22:59:33;23.00;71.30
8002;DHT22;4046;48.774;8.732;2024-02-15T23:02:00;23.00;71.30
8002;DHT22;4046;48.774;8.732;2024-02-15T23:04:35;23.00;71.30
8002;DHT22;4046;48.774;8.732;2024-02-15T23:07:42;23.00;71.30
8002;DHT22;4046;48.774;8.732;2024-02-15T23:13:54;23.00;71.30
8002;DHT22;4046;48.774;8.732;2024-02-15T23:16:52;23.00;71.30
8002;DHT22;4046;48.774;8.732;2024-02-15T23:20:15;23.00;71.30
8002;DHT22;4046;48.774;8.732;2024-02-15T23:23:40;23.00;71.30
8002;DHT22;4046;48.774;8.732;2024-02-15T23:29:36;23.00;71.30
8002;DHT22;4046;48.774;8.732;2024-02-15T23:32:06;23.00;71.40
8002;DHT22;4046;48.774;8.732;2024-02-15T23:34:56;22.80;71.10
8002;DHT22;4046;48.774;8.732;2024-02-15T23:37:51;23.00;71.30
8002;DHT22;4046;48.774;8.732;2024-02-15T23:40:55;23.00;71.30
8002;DHT22;4046;48.774;8.732;2024-02-15T23:43:42;23.00;71.30
8002;DHT22;4046;48.774;8.732;2024-02-15T23:49:28;23.00;71.30
8002;DHT22;4046;48.774;8.732;2024-02-15T23:51:54;23.00;71.40
8002;DHT22;4046;48.774;8.732;2024-02-15T23:58:05;22.90;71.30
